createdAt,value
2023-04-07T00:00:28.370Z,947.3
2023-04-07T00:01:30.452Z,947.2
2023-04-07T00:02:32.650Z,947.2
2023-04-07T00:03:35.027Z,947.2
2023-04-07T00:04:37.758Z,947.2
2023-04-07T00:05:39.741Z,947.2
2023-04-07T00:06:41.489Z,947.3
2023-04-07T00:07:57.688Z,947.3
2023-04-07T00:08:59.640Z,947.3
2023-04-07T00:10:01.586Z,947.3
2023-04-07T00:11:03.332Z,947.3
2023-04-07T00:12:05.183Z,947.3
2023-04-07T00:13:07.139Z,947.3
2023-04-07T00:14:08.990Z,947.3
2023-04-07T00:15:10.843Z,947.2
2023-04-07T00:16:12.884Z,947.3
2023-04-07T00:17:14.844Z,947.3
2023-04-07T00:18:16.792Z,947.3
2023-04-07T00:19:18.640Z,947.2
2023-04-07T00:20:20.609Z,947.2
2023-04-07T00:21:22.444Z,947.2
2023-04-07T00:22:24.306Z,947.3
2023-04-07T00:23:26.143Z,947.2
2023-04-07T00:24:35.167Z,947.2
2023-04-07T00:25:37.011Z,947.2
2023-04-07T00:26:38.972Z,947.2
2023-04-07T00:27:40.816Z,947.2
2023-04-07T00:28:42.668Z,947.2
2023-04-07T00:29:44.520Z,947.2
2023-04-07T00:30:46.362Z,947.2
2023-04-07T00:31:48.248Z,947.1
2023-04-07T00:32:50.308Z,947.2
2023-04-07T00:33:52.221Z,947.2
2023-04-07T00:34:54.204Z,947.2
2023-04-07T00:35:55.952Z,947.1
2023-04-07T00:36:57.776Z,947.2
2023-04-07T00:37:59.625Z,947.2
2023-04-07T00:39:01.573Z,947.2
2023-04-07T00:40:03.525Z,947.2
2023-04-07T00:41:05.381Z,947.2
2023-04-07T00:42:07.340Z,947.2
2023-04-07T00:43:09.030Z,947.2
2023-04-07T00:44:10.824Z,947.2
2023-04-07T00:45:12.673Z,947.2
2023-04-07T00:46:14.854Z,947.2
2023-04-07T00:47:16.918Z,947.2
2023-04-07T00:48:18.748Z,947.2
2023-04-07T00:49:20.688Z,947.2
2023-04-07T00:50:22.637Z,947.2
2023-04-07T00:51:24.492Z,947.2
2023-04-07T00:52:26.449Z,947.2
2023-04-07T00:53:28.616Z,947.2
2023-04-07T00:54:30.863Z,947.2
2023-04-07T00:55:32.711Z,947.2
2023-04-07T00:56:34.663Z,947.2
2023-04-07T00:57:36.522Z,947.2
2023-04-07T00:58:38.367Z,947.2
2023-04-07T00:59:40.214Z,947.2
2023-04-07T01:00:42.074Z,947.2
2023-04-07T01:01:44.358Z,947.2
2023-04-07T01:02:46.930Z,947.2
2023-04-07T01:03:49.716Z,947.2
2023-04-07T01:04:52.486Z,947.2
2023-04-07T01:05:54.485Z,947.2
2023-04-07T01:06:56.334Z,947.2
2023-04-07T01:07:58.157Z,947.2
2023-04-07T01:09:00.157Z,947.2
2023-04-07T01:10:01.805Z,947.1
2023-04-07T01:11:03.644Z,947.1
2023-04-07T01:12:05.596Z,947.2
2023-04-07T01:13:07.471Z,947.2
2023-04-07T01:14:09.298Z,947.2
2023-04-07T01:15:11.167Z,947.2
2023-04-07T01:16:12.998Z,947.1
2023-04-07T01:17:14.938Z,947.2
2023-04-07T01:18:16.814Z,947.2
2023-04-07T01:19:18.747Z,947.1
2023-04-07T01:20:20.600Z,947.2
2023-04-07T01:21:22.438Z,947.1
2023-04-07T01:22:24.298Z,947.1
2023-04-07T01:23:25.959Z,947.1
2023-04-07T01:24:27.791Z,947.1
2023-04-07T01:25:29.643Z,947.1
2023-04-07T01:26:31.601Z,947.1
2023-04-07T01:27:33.417Z,947.1
2023-04-07T01:28:35.285Z,947
2023-04-07T01:29:37.245Z,947.1
2023-04-07T01:30:39.088Z,947
2023-04-07T01:31:41.282Z,947
2023-04-07T01:32:43.413Z,947
2023-04-07T01:33:45.483Z,947
2023-04-07T01:34:47.418Z,947
2023-04-07T01:35:49.261Z,947
2023-04-07T01:36:51.223Z,947
2023-04-07T01:37:53.171Z,947
2023-04-07T01:38:55.011Z,946.9
2023-04-07T01:39:56.982Z,947
2023-04-07T01:40:58.821Z,947
2023-04-07T01:42:00.668Z,947
2023-04-07T01:43:02.527Z,947
2023-04-07T01:44:04.370Z,947
2023-04-07T01:45:06.336Z,946.9
2023-04-07T01:46:08.183Z,946.9
2023-04-07T01:47:10.180Z,946.9
2023-04-07T01:48:12.291Z,946.9
2023-04-07T01:49:14.374Z,947
2023-04-07T01:50:16.189Z,946.9
2023-04-07T01:51:18.075Z,947
2023-04-07T01:52:19.899Z,946.9
2023-04-07T01:53:21.752Z,946.9
2023-04-07T01:54:23.594Z,946.9
2023-04-07T01:55:25.391Z,946.9
2023-04-07T01:56:27.296Z,946.9
2023-04-07T01:57:29.136Z,946.9
2023-04-07T01:58:30.885Z,946.9
2023-04-07T01:59:32.633Z,946.9
2023-04-07T02:00:34.596Z,946.9
2023-04-07T02:01:36.892Z,946.8
2023-04-07T02:02:39.485Z,946.9
2023-04-07T02:03:42.073Z,946.9
2023-04-07T02:04:44.163Z,946.8
2023-04-07T02:05:45.986Z,946.8
2023-04-07T02:06:47.939Z,946.8
2023-04-07T02:07:49.797Z,946.9
2023-04-07T02:08:51.653Z,946.9
2023-04-07T02:09:53.600Z,946.9
2023-04-07T02:10:55.460Z,946.9
2023-04-07T02:11:57.292Z,946.9
2023-04-07T02:12:59.147Z,946.9
2023-04-07T02:14:01.012Z,946.9
2023-04-07T02:15:02.850Z,946.8
2023-04-07T02:16:04.823Z,946.8
2023-04-07T02:17:06.769Z,946.8
2023-04-07T02:18:08.771Z,946.9
2023-04-07T02:19:10.766Z,946.9
2023-04-07T02:20:12.635Z,946.9
2023-04-07T02:21:14.659Z,946.9
2023-04-07T02:22:16.712Z,946.9
2023-04-07T02:23:18.567Z,946.9
2023-04-07T02:24:20.401Z,946.9
2023-04-07T02:25:22.372Z,946.8
2023-04-07T02:26:24.215Z,946.9
2023-04-07T02:27:26.178Z,946.8
2023-04-07T02:28:28.024Z,946.8
2023-04-07T02:29:29.891Z,946.9
2023-04-07T02:30:31.828Z,946.9
2023-04-07T02:31:33.907Z,946.9
2023-04-07T02:32:36.149Z,946.9
2023-04-07T02:33:37.991Z,946.9
2023-04-07T02:34:39.812Z,946.9
2023-04-07T02:35:42.141Z,946.8
2023-04-07T02:36:44.112Z,946.9
2023-04-07T02:37:46.120Z,946.8
2023-04-07T02:38:48.054Z,946.8
2023-04-07T02:39:49.924Z,946.8
2023-04-07T02:40:51.763Z,946.8
2023-04-07T02:41:53.604Z,946.8
2023-04-07T02:42:55.460Z,946.9
2023-04-07T02:43:58.476Z,946.8
2023-04-07T02:45:00.496Z,946.8
2023-04-07T02:46:02.603Z,946.8
2023-04-07T02:47:04.694Z,946.9
2023-04-07T02:48:06.548Z,946.9
2023-04-07T02:49:08.509Z,946.9
2023-04-07T02:50:10.457Z,946.9
2023-04-07T02:51:12.333Z,946.9
2023-04-07T02:52:14.354Z,946.9
2023-04-07T02:53:16.203Z,946.9
2023-04-07T02:54:17.935Z,946.9
2023-04-07T02:55:19.815Z,946.9
2023-04-07T02:56:21.764Z,946.9
2023-04-07T02:57:23.624Z,946.9
2023-04-07T02:58:25.457Z,946.9
2023-04-07T02:59:27.389Z,947
2023-04-07T03:00:29.281Z,947
2023-04-07T03:01:31.397Z,947
2023-04-07T03:02:34.385Z,947
2023-04-07T03:03:36.951Z,947
2023-04-07T03:04:39.016Z,947
2023-04-07T03:05:40.997Z,947
2023-04-07T03:06:42.850Z,947
2023-04-07T03:07:44.774Z,947
2023-04-07T03:08:46.623Z,947
2023-04-07T03:09:48.579Z,947
2023-04-07T03:10:50.595Z,947
2023-04-07T03:11:52.457Z,947.1
2023-04-07T03:12:54.329Z,947.1
2023-04-07T03:13:56.179Z,947
2023-04-07T03:14:57.893Z,947.1
2023-04-07T03:15:59.896Z,947
2023-04-07T03:17:01.855Z,947
2023-04-07T03:18:03.856Z,947
2023-04-07T03:19:06.038Z,947.1
2023-04-07T03:20:07.889Z,947.1
2023-04-07T03:21:09.840Z,947.1
2023-04-07T03:22:11.689Z,947.1
2023-04-07T03:23:13.628Z,947.1
2023-04-07T03:24:15.496Z,947.1
2023-04-07T03:25:17.355Z,947.1
2023-04-07T03:26:19.199Z,947.1
2023-04-07T03:27:20.931Z,947.1
2023-04-07T03:28:22.810Z,947
2023-04-07T03:29:24.655Z,947.1
2023-04-07T03:30:26.521Z,947
2023-04-07T03:31:28.466Z,947
2023-04-07T03:32:30.396Z,947
2023-04-07T03:33:32.458Z,947
2023-04-07T03:34:34.313Z,947
2023-04-07T03:35:36.404Z,947
2023-04-07T03:36:38.420Z,946.9
2023-04-07T03:37:40.310Z,947
2023-04-07T03:38:42.214Z,947
2023-04-07T03:39:44.048Z,946.9
2023-04-07T03:40:46.025Z,947
2023-04-07T03:41:47.868Z,947
2023-04-07T03:42:49.818Z,946.9
2023-04-07T03:43:52.846Z,946.9
2023-04-07T03:44:55.244Z,946.9
2023-04-07T03:45:57.315Z,946.9
2023-04-07T03:46:59.167Z,946.9
2023-04-07T03:48:01.234Z,946.9
2023-04-07T03:49:03.178Z,947
2023-04-07T03:50:05.133Z,946.9
2023-04-07T03:51:06.838Z,946.9
2023-04-07T03:52:08.734Z,947
2023-04-07T03:53:10.603Z,947
2023-04-07T03:54:12.535Z,947
2023-04-07T03:55:14.383Z,947
2023-04-07T03:56:16.233Z,947
2023-04-07T03:57:18.087Z,947
2023-04-07T03:58:20.036Z,947
2023-04-07T03:59:21.881Z,947
2023-04-07T04:00:23.758Z,947
2023-04-07T04:01:25.688Z,947
2023-04-07T04:02:27.694Z,947.1
2023-04-07T04:03:30.119Z,947
2023-04-07T04:04:32.373Z,947.1
2023-04-07T04:05:34.312Z,947.2
2023-04-07T04:06:36.270Z,947.1
2023-04-07T04:07:38.332Z,947.1
2023-04-07T04:08:40.300Z,947.1
2023-04-07T04:09:42.295Z,947.1
2023-04-07T04:10:44.188Z,947.1
2023-04-07T04:11:46.131Z,947.1
2023-04-07T04:12:47.878Z,947.1
2023-04-07T04:13:49.735Z,947.1
2023-04-07T04:14:51.583Z,947.1
2023-04-07T04:15:53.768Z,947.1
2023-04-07T04:16:55.630Z,947.2
2023-04-07T04:17:57.471Z,947.1
2023-04-07T04:18:59.292Z,947.1
2023-04-07T04:20:01.237Z,947.2
2023-04-07T04:21:03.204Z,947.2
2023-04-07T04:22:05.043Z,947.2
2023-04-07T04:23:06.886Z,947.2
2023-04-07T04:24:08.760Z,947.2
2023-04-07T04:25:10.688Z,947.2
2023-04-07T04:26:12.644Z,947.2
2023-04-07T04:27:14.506Z,947.2
2023-04-07T04:28:16.250Z,947.3
2023-04-07T04:29:18.105Z,947.2
2023-04-07T04:30:20.002Z,947.2
2023-04-07T04:31:22.048Z,947.2
2023-04-07T04:32:24.070Z,947.2
2023-04-07T04:33:25.898Z,947.2
2023-04-07T04:34:27.951Z,947.3
2023-04-07T04:35:29.804Z,947.3
2023-04-07T04:36:31.879Z,947.3
2023-04-07T04:37:33.690Z,947.3
2023-04-07T04:38:35.665Z,947.3
2023-04-07T04:39:37.622Z,947.3
2023-04-07T04:40:39.446Z,947.3
2023-04-07T04:41:41.318Z,947.3
2023-04-07T04:42:43.286Z,947.3
2023-04-07T04:43:46.860Z,947.4
2023-04-07T04:44:49.850Z,947.4
2023-04-07T04:45:51.683Z,947.4
2023-04-07T04:46:53.552Z,947.4
2023-04-07T04:47:55.513Z,947.4
2023-04-07T04:48:57.464Z,947.4
2023-04-07T04:49:59.290Z,947.4
2023-04-07T04:51:01.118Z,947.5
2023-04-07T04:52:02.895Z,947.5
2023-04-07T04:53:04.692Z,947.5
2023-04-07T04:54:06.587Z,947.5
2023-04-07T04:55:08.582Z,947.5
2023-04-07T04:56:10.500Z,947.5
2023-04-07T04:57:12.268Z,947.5
2023-04-07T04:58:14.092Z,947.5
2023-04-07T04:59:15.976Z,947.5
2023-04-07T05:00:17.908Z,947.5
2023-04-07T05:01:19.964Z,947.6
2023-04-07T05:02:22.378Z,947.6
2023-04-07T05:03:25.221Z,947.5
2023-04-07T05:04:27.791Z,947.5
2023-04-07T05:05:30.020Z,947.5
2023-04-07T05:06:31.869Z,947.5
2023-04-07T05:07:33.691Z,947.5
2023-04-07T05:08:35.564Z,947.5
2023-04-07T05:09:37.493Z,947.6
2023-04-07T05:10:39.394Z,947.5
2023-04-07T05:11:41.324Z,947.6
2023-04-07T05:12:43.165Z,947.6
2023-04-07T05:13:45.124Z,947.6
2023-04-07T05:14:46.966Z,947.6
2023-04-07T05:15:48.898Z,947.6
2023-04-07T05:16:50.879Z,947.6
2023-04-07T05:17:52.947Z,947.6
2023-04-07T05:18:54.787Z,947.7
2023-04-07T05:19:56.527Z,947.6
2023-04-07T05:20:58.386Z,947.6
2023-04-07T05:22:00.230Z,947.7
2023-04-07T05:23:02.087Z,947.7
2023-04-07T05:24:03.972Z,947.7
2023-04-07T05:25:05.797Z,947.7
2023-04-07T05:26:07.653Z,947.7
2023-04-07T05:27:09.472Z,947.8
2023-04-07T05:28:11.426Z,947.7
2023-04-07T05:29:13.273Z,947.7
2023-04-07T05:30:15.231Z,947.7
2023-04-07T05:31:17.202Z,947.7
2023-04-07T05:32:19.033Z,947.7
2023-04-07T05:33:20.779Z,947.7
2023-04-07T05:34:22.526Z,947.8
2023-04-07T05:35:24.485Z,947.8
2023-04-07T05:36:26.450Z,947.8
2023-04-07T05:37:28.381Z,947.8
2023-04-07T05:38:30.243Z,947.7
2023-04-07T05:39:32.088Z,947.8
2023-04-07T05:40:37.949Z,947.8
2023-04-07T05:41:39.906Z,947.8
2023-04-07T05:42:41.829Z,947.8
2023-04-07T05:43:43.702Z,947.8
2023-04-07T05:44:45.538Z,947.8
2023-04-07T05:45:47.525Z,947.8
2023-04-07T05:46:49.443Z,947.7
2023-04-07T05:47:51.333Z,947.7
2023-04-07T05:48:53.269Z,947.7
2023-04-07T05:49:55.100Z,947.8
2023-04-07T05:50:56.839Z,947.7
2023-04-07T05:51:58.806Z,947.8
2023-04-07T05:53:00.681Z,947.8
2023-04-07T05:54:02.491Z,947.8
2023-04-07T05:55:04.349Z,947.8
2023-04-07T05:56:06.217Z,947.8
2023-04-07T05:57:08.181Z,947.8
2023-04-07T05:58:10.095Z,947.7
2023-04-07T05:59:11.952Z,947.7
2023-04-07T06:00:13.803Z,947.8
2023-04-07T06:01:15.579Z,947.8
2023-04-07T06:02:17.809Z,947.8
2023-04-07T06:03:20.298Z,947.8
2023-04-07T06:04:22.228Z,947.7
2023-04-07T06:05:24.205Z,947.7
2023-04-07T06:06:26.125Z,947.7
2023-04-07T06:07:27.818Z,947.7
2023-04-07T06:08:29.625Z,947.7
2023-04-07T06:09:31.308Z,947.8
2023-04-07T06:10:33.045Z,947.8
2023-04-07T06:11:34.950Z,947.7
2023-04-07T06:12:36.849Z,947.8
2023-04-07T06:13:38.667Z,947.8
2023-04-07T06:14:40.625Z,947.8
2023-04-07T06:15:42.467Z,947.7
2023-04-07T06:16:44.455Z,947.8
2023-04-07T06:17:46.607Z,947.7
2023-04-07T06:18:48.445Z,947.8
2023-04-07T06:19:50.227Z,947.8
2023-04-07T06:20:52.064Z,947.8
2023-04-07T06:21:53.874Z,947.8
2023-04-07T06:22:55.746Z,947.8
2023-04-07T06:23:57.579Z,947.8
2023-04-07T06:24:59.424Z,947.8
2023-04-07T06:26:01.278Z,947.8
2023-04-07T06:27:03.133Z,947.8
2023-04-07T06:28:05.108Z,947.7
2023-04-07T06:29:06.932Z,947.7
2023-04-07T06:30:08.749Z,947.7
2023-04-07T06:31:10.888Z,947.8
2023-04-07T06:32:12.681Z,947.7
2023-04-07T06:33:14.539Z,947.7
2023-04-07T06:34:16.386Z,947.7
2023-04-07T06:35:18.173Z,947.7
2023-04-07T06:36:19.931Z,947.7
2023-04-07T06:37:22.033Z,947.7
2023-04-07T06:38:23.707Z,947.7
2023-04-07T06:39:25.640Z,947.7
2023-04-07T06:40:27.485Z,947.7
2023-04-07T06:41:29.342Z,947.7
2023-04-07T06:42:31.101Z,947.7
2023-04-07T06:43:33.057Z,947.7
2023-04-07T06:44:34.878Z,947.6
2023-04-07T06:45:36.558Z,947.7
2023-04-07T06:46:38.504Z,947.7
2023-04-07T06:47:40.688Z,947.7
2023-04-07T06:48:42.697Z,947.7
2023-04-07T06:49:44.559Z,947.7
2023-04-07T06:50:46.404Z,947.7
2023-04-07T06:51:48.255Z,947.7
2023-04-07T06:52:50.026Z,947.7
2023-04-07T06:53:51.944Z,947.7
2023-04-07T06:54:53.811Z,947.8
2023-04-07T06:55:55.853Z,947.7
2023-04-07T06:56:57.706Z,947.7
2023-04-07T06:57:59.496Z,947.7
2023-04-07T06:59:01.336Z,947.7
2023-04-07T07:00:03.354Z,947.7
2023-04-07T07:01:05.206Z,947.7
2023-04-07T07:02:07.559Z,947.7
2023-04-07T07:03:11.036Z,947.7
2023-04-07T07:04:13.418Z,947.7
2023-04-07T07:05:15.483Z,947.7
2023-04-07T07:06:17.390Z,947.6
2023-04-07T07:07:19.244Z,947.6
2023-04-07T07:08:21.057Z,947.7
2023-04-07T07:09:22.887Z,947.7
2023-04-07T07:10:24.829Z,947.7
2023-04-07T07:11:26.675Z,947.7
2023-04-07T07:12:29.135Z,947.7
2023-04-07T07:13:30.993Z,947.7
2023-04-07T07:14:32.783Z,947.7
2023-04-07T07:15:34.905Z,947.7
2023-04-07T07:16:36.740Z,947.7
2023-04-07T07:17:38.793Z,947.7
2023-04-07T07:18:40.653Z,947.7
2023-04-07T07:19:42.439Z,947.7
2023-04-07T07:20:44.245Z,947.7
2023-04-07T07:21:45.971Z,947.7
2023-04-07T07:22:47.779Z,947.8
2023-04-07T07:23:50.690Z,947.8
2023-04-07T07:24:52.586Z,947.8
2023-04-07T07:25:54.838Z,947.8
2023-04-07T07:26:56.690Z,947.8
2023-04-07T07:27:58.422Z,947.8
2023-04-07T07:29:00.327Z,947.8
2023-04-07T07:30:02.262Z,947.8
2023-04-07T07:31:04.202Z,947.8
2023-04-07T07:32:06.030Z,947.9
2023-04-07T07:33:07.916Z,947.9
2023-04-07T07:34:09.833Z,947.9
2023-04-07T07:35:11.777Z,947.8
2023-04-07T07:36:13.512Z,947.9
2023-04-07T07:37:15.380Z,947.9
2023-04-07T07:38:17.231Z,947.8
2023-04-07T07:39:19.090Z,947.9
2023-04-07T07:40:20.840Z,947.9
2023-04-07T07:41:22.724Z,948
2023-04-07T07:42:24.608Z,948
2023-04-07T07:43:26.504Z,948
2023-04-07T07:44:32.574Z,948
2023-04-07T07:45:34.404Z,948
2023-04-07T07:46:36.353Z,948
2023-04-07T07:47:38.401Z,947.9
2023-04-07T07:48:40.250Z,947.9
2023-04-07T07:49:42.291Z,948
2023-04-07T07:50:44.034Z,948
2023-04-07T07:51:46.000Z,948
2023-04-07T07:52:47.735Z,948
2023-04-07T07:53:50.453Z,947.9
2023-04-07T07:54:52.259Z,947.9
2023-04-07T07:55:54.053Z,947.9
2023-04-07T07:56:55.936Z,947.9
2023-04-07T07:57:57.820Z,948
2023-04-07T07:58:59.657Z,948
2023-04-07T08:00:01.518Z,948
2023-04-07T08:01:03.332Z,948
2023-04-07T08:02:05.442Z,948
2023-04-07T08:03:07.579Z,947.9
2023-04-07T08:04:10.189Z,947.9
2023-04-07T08:05:12.398Z,947.9
2023-04-07T08:06:14.360Z,947.9
2023-04-07T08:07:16.326Z,947.9
2023-04-07T08:08:18.104Z,947.9
2023-04-07T08:09:20.003Z,948
2023-04-07T08:10:21.766Z,947.9
2023-04-07T08:11:23.604Z,947.9
2023-04-07T08:12:25.353Z,947.9
2023-04-07T08:13:27.140Z,947.9
2023-04-07T08:14:28.893Z,947.9
2023-04-07T08:15:30.701Z,947.9
2023-04-07T08:16:32.686Z,947.9
2023-04-07T08:17:34.831Z,947.9
2023-04-07T08:18:36.745Z,947.8
2023-04-07T08:19:38.580Z,947.8
2023-04-07T08:20:40.474Z,947.9
2023-04-07T08:21:42.319Z,947.9
2023-04-07T08:22:44.130Z,947.9
2023-04-07T08:23:46.750Z,947.9
2023-04-07T08:24:49.085Z,947.9
2023-04-07T08:25:51.037Z,947.9
2023-04-07T08:26:52.689Z,947.9
2023-04-07T08:27:54.634Z,947.9
2023-04-07T08:28:56.505Z,947.9
2023-04-07T08:29:58.342Z,947.8
2023-04-07T08:31:00.196Z,947.9
2023-04-07T08:32:02.433Z,947.9
2023-04-07T08:33:04.530Z,947.9
2023-04-07T08:34:06.482Z,947.9
2023-04-07T08:35:08.433Z,947.9
2023-04-07T08:36:10.271Z,947.9
2023-04-07T08:37:12.228Z,947.9
2023-04-07T08:38:14.195Z,947.9
2023-04-07T08:39:15.955Z,947.8
2023-04-07T08:40:17.760Z,947.8
2023-04-07T08:41:19.616Z,947.9
2023-04-07T08:42:21.460Z,947.8
2023-04-07T08:43:23.214Z,947.8
2023-04-07T08:44:24.899Z,947.8
2023-04-07T08:45:26.710Z,947.8
2023-04-07T08:46:28.467Z,947.9
2023-04-07T08:47:30.529Z,947.9
2023-04-07T08:48:32.561Z,947.9
2023-04-07T08:49:34.322Z,947.8
2023-04-07T08:50:36.279Z,947.8
2023-04-07T08:51:38.226Z,947.9
2023-04-07T08:52:39.968Z,947.8
2023-04-07T08:53:41.556Z,947.8
2023-04-07T08:54:43.452Z,947.8
2023-04-07T08:55:45.208Z,947.8
2023-04-07T08:56:47.164Z,947.9
2023-04-07T08:57:49.097Z,947.9
2023-04-07T08:58:50.960Z,947.9
2023-04-07T08:59:52.812Z,947.8
2023-04-07T09:00:54.696Z,947.9
2023-04-07T09:01:56.842Z,947.8
2023-04-07T09:02:58.955Z,947.9
2023-04-07T09:04:01.111Z,947.9
2023-04-07T09:05:03.031Z,947.8
2023-04-07T09:06:04.819Z,947.8
2023-04-07T09:07:06.608Z,947.9
2023-04-07T09:08:08.642Z,947.8
2023-04-07T09:09:10.478Z,947.8
2023-04-07T09:10:12.186Z,947.8
2023-04-07T09:11:14.072Z,947.9
2023-04-07T09:12:15.942Z,947.9
2023-04-07T09:13:17.787Z,947.9
2023-04-07T09:14:19.636Z,947.8
2023-04-07T09:15:21.589Z,947.9
2023-04-07T09:16:23.442Z,947.9
2023-04-07T09:17:25.207Z,947.9
2023-04-07T09:18:27.171Z,947.8
2023-04-07T09:19:28.968Z,947.9
2023-04-07T09:20:30.690Z,947.9
2023-04-07T09:21:32.390Z,947.9
2023-04-07T09:22:34.225Z,947.9
2023-04-07T09:23:36.150Z,947.9
2023-04-07T09:24:37.927Z,948
2023-04-07T09:25:39.790Z,947.9
2023-04-07T09:26:41.618Z,947.9
2023-04-07T09:27:43.365Z,947.9
2023-04-07T09:28:45.434Z,947.9
2023-04-07T09:29:47.183Z,947.9
2023-04-07T09:30:48.791Z,947.9
2023-04-07T09:31:50.881Z,947.9
2023-04-07T09:32:52.847Z,947.9
2023-04-07T09:33:54.901Z,947.9
2023-04-07T09:34:56.691Z,947.9
2023-04-07T09:35:58.726Z,948
2023-04-07T09:37:00.641Z,948
2023-04-07T09:38:02.426Z,948
2023-04-07T09:39:04.240Z,947.9
2023-04-07T09:40:06.088Z,947.9
2023-04-07T09:41:08.294Z,947.9
2023-04-07T09:42:10.074Z,948
2023-04-07T09:43:11.781Z,947.9
2023-04-07T09:44:13.682Z,947.9
2023-04-07T09:45:36.917Z,948
2023-04-07T09:46:42.381Z,948
2023-04-07T09:47:44.501Z,948
2023-04-07T09:48:46.374Z,947.9
2023-04-07T09:49:48.101Z,947.9
2023-04-07T09:50:50.078Z,948
2023-04-07T09:51:51.863Z,948
2023-04-07T09:52:54.097Z,948
2023-04-07T09:53:55.980Z,948.1
2023-04-07T09:54:57.886Z,948.1
2023-04-07T09:55:59.778Z,948.1
2023-04-07T09:57:01.597Z,948.1
2023-04-07T09:58:03.409Z,948.1
2023-04-07T09:59:05.124Z,948
2023-04-07T10:00:06.840Z,948
2023-04-07T10:01:08.792Z,948
2023-04-07T10:02:11.266Z,948.1
2023-04-07T10:03:13.378Z,948.1
2023-04-07T10:04:15.423Z,948.1
2023-04-07T10:05:17.333Z,948.1
2023-04-07T10:06:19.168Z,948.1
2023-04-07T10:07:21.020Z,948.1
2023-04-07T10:08:22.756Z,948.1
2023-04-07T10:09:24.709Z,948
2023-04-07T10:10:26.460Z,948
2023-04-07T10:11:28.213Z,948
2023-04-07T10:12:32.619Z,948
2023-04-07T10:13:34.360Z,948
2023-04-07T10:14:37.171Z,948
2023-04-07T10:15:41.854Z,947.9
2023-04-07T10:16:43.847Z,947.9
2023-04-07T10:17:45.759Z,948
2023-04-07T10:18:47.717Z,948
2023-04-07T10:19:49.467Z,948
2023-04-07T10:20:51.839Z,948
2023-04-07T10:21:53.683Z,948
2023-04-07T10:22:55.415Z,947.9
2023-04-07T10:23:57.159Z,948
2023-04-07T10:24:58.929Z,948
2023-04-07T10:26:00.719Z,947.9
2023-04-07T10:27:02.517Z,947.9
2023-04-07T10:28:04.376Z,947.9
2023-04-07T10:29:06.225Z,947.9
2023-04-07T10:30:08.036Z,947.9
2023-04-07T10:31:09.980Z,947.9
2023-04-07T10:32:11.786Z,947.9
2023-04-07T10:33:13.609Z,947.9
2023-04-07T10:34:15.370Z,948
2023-04-07T10:35:17.240Z,948
2023-04-07T10:36:19.302Z,948
2023-04-07T10:37:21.273Z,948
2023-04-07T10:38:23.438Z,948
2023-04-07T10:39:25.325Z,948
2023-04-07T10:40:27.134Z,948
2023-04-07T10:41:28.936Z,948
2023-04-07T10:42:30.711Z,948
2023-04-07T10:43:32.520Z,948
2023-04-07T10:44:34.280Z,948
2023-04-07T10:45:36.125Z,948
2023-04-07T10:46:38.304Z,948
2023-04-07T10:47:40.450Z,948
2023-04-07T10:48:42.266Z,948
2023-04-07T10:49:44.059Z,948.1
2023-04-07T10:50:45.886Z,948.1
2023-04-07T10:51:47.879Z,948
2023-04-07T10:52:49.703Z,948
2023-04-07T10:53:52.016Z,948
2023-04-07T10:54:54.108Z,948
2023-04-07T10:55:55.908Z,948.1
2023-04-07T10:56:57.812Z,948.1
2023-04-07T10:57:59.651Z,948.1
2023-04-07T10:59:01.403Z,948
2023-04-07T11:00:03.181Z,948.1
2023-04-07T11:01:05.106Z,948
2023-04-07T11:02:07.222Z,948
2023-04-07T11:03:09.534Z,948.1
2023-04-07T11:04:11.825Z,948
2023-04-07T11:05:13.944Z,948
2023-04-07T11:06:15.715Z,948.1
2023-04-07T11:07:17.385Z,948
2023-04-07T11:08:19.319Z,948.1
2023-04-07T11:09:21.138Z,948.1
2023-04-07T11:10:23.051Z,948.1
2023-04-07T11:11:25.035Z,948.1
2023-04-07T11:12:26.784Z,948.1
2023-04-07T11:13:28.634Z,948.1
2023-04-07T11:14:30.482Z,948.1
2023-04-07T11:15:32.442Z,948.1
2023-04-07T11:16:34.538Z,948.2
2023-04-07T11:17:36.510Z,948.2
2023-04-07T11:18:38.408Z,948.1
2023-04-07T11:19:40.266Z,948.1
2023-04-07T11:20:46.173Z,948.1
2023-04-07T11:21:48.040Z,948.1
2023-04-07T11:22:49.918Z,948.1
2023-04-07T11:23:52.284Z,948.1
2023-04-07T11:24:54.106Z,948.2
2023-04-07T11:25:55.979Z,948.1
2023-04-07T11:26:58.015Z,948.2
2023-04-07T11:27:59.960Z,948.2
2023-04-07T11:29:01.809Z,948.1
2023-04-07T11:30:03.668Z,948.2
2023-04-07T11:31:05.537Z,948.1
2023-04-07T11:32:07.563Z,948.1
2023-04-07T11:33:09.417Z,948.1
2023-04-07T11:34:11.097Z,948.1
2023-04-07T11:35:12.924Z,948.1
2023-04-07T11:36:14.800Z,948.2
2023-04-07T11:37:16.619Z,948.1
2023-04-07T11:38:18.533Z,948.1
2023-04-07T11:39:20.514Z,948.1
2023-04-07T11:40:22.302Z,948.1
2023-04-07T11:41:24.126Z,948.1
2023-04-07T11:42:25.730Z,948.1
2023-04-07T11:43:27.624Z,948.1
2023-04-07T11:44:29.393Z,948.1
2023-04-07T11:45:31.320Z,948.1
2023-04-07T11:46:33.440Z,948.1
2023-04-07T11:47:35.479Z,948.1
2023-04-07T11:48:37.685Z,948.1
2023-04-07T11:49:39.527Z,948.1
2023-04-07T11:50:41.402Z,948.1
2023-04-07T11:51:43.232Z,948.1
2023-04-07T11:52:45.090Z,948.1
2023-04-07T11:53:47.641Z,948.1
2023-04-07T11:54:50.127Z,948.1
2023-04-07T11:55:51.794Z,948.1
2023-04-07T11:56:53.502Z,948.1
2023-04-07T11:57:55.267Z,948.2
2023-04-07T11:58:57.200Z,948.1
2023-04-07T11:59:58.992Z,948.2
2023-04-07T12:01:00.695Z,948.2
2023-04-07T12:02:02.825Z,948.1
2023-04-07T12:03:05.196Z,948.1
2023-04-07T12:04:08.066Z,948.1
2023-04-07T12:05:11.003Z,948.1
2023-04-07T12:06:12.916Z,948.1
2023-04-07T12:07:14.660Z,948.1
2023-04-07T12:08:16.418Z,948.1
2023-04-07T12:09:18.239Z,948.1
2023-04-07T12:10:20.096Z,948.1
2023-04-07T12:11:21.960Z,948.1
2023-04-07T12:12:23.819Z,948.1
2023-04-07T12:13:25.603Z,948.1
2023-04-07T12:14:27.538Z,948.1
2023-04-07T12:15:29.674Z,948.1
2023-04-07T12:16:31.884Z,948.1
2023-04-07T12:17:34.011Z,948.2
2023-04-07T12:18:35.944Z,948.2
2023-04-07T12:19:37.785Z,948.2
2023-04-07T12:20:39.652Z,948.2
2023-04-07T12:21:41.484Z,948.2
2023-04-07T12:22:43.300Z,948.1
2023-04-07T12:23:45.286Z,948.1
2023-04-07T12:24:47.376Z,948.2
2023-04-07T12:25:49.309Z,948.1
2023-04-07T12:26:51.192Z,948.1
2023-04-07T12:27:53.161Z,948.2
2023-04-07T12:28:55.063Z,948.2
2023-04-07T12:29:56.899Z,948.2
2023-04-07T12:30:58.655Z,948.2
2023-04-07T12:32:00.771Z,948.2
2023-04-07T12:33:02.805Z,948.2
2023-04-07T12:34:04.728Z,948.2
2023-04-07T12:35:06.668Z,948.2
2023-04-07T12:36:08.639Z,948.2
2023-04-07T12:37:10.396Z,948.2
2023-04-07T12:38:12.215Z,948.2
2023-04-07T12:39:13.960Z,948.2
2023-04-07T12:40:15.933Z,948.2
2023-04-07T12:41:17.870Z,948.2
2023-04-07T12:42:19.812Z,948.2
2023-04-07T12:43:21.507Z,948.2
2023-04-07T12:44:23.315Z,948.2
2023-04-07T12:45:25.173Z,948.1
2023-04-07T12:46:27.221Z,948.1
2023-04-07T12:47:29.738Z,948.1
2023-04-07T12:48:31.750Z,948.2
2023-04-07T12:49:33.577Z,948.2
2023-04-07T12:50:35.437Z,948.1
2023-04-07T12:51:37.127Z,948.1
2023-04-07T12:52:38.942Z,948.2
2023-04-07T12:53:40.729Z,948.2
2023-04-07T12:54:42.537Z,948.2
2023-04-07T12:55:44.411Z,948.2
2023-04-07T12:56:46.339Z,948.3
2023-04-07T12:57:48.295Z,948.2
2023-04-07T12:58:50.134Z,948.2
2023-04-07T12:59:51.995Z,948.2
2023-04-07T13:00:53.979Z,948.2
2023-04-07T13:01:56.285Z,948.3
2023-04-07T13:02:59.312Z,948.3
2023-04-07T13:04:01.618Z,948.3
2023-04-07T13:05:03.498Z,948.3
2023-04-07T13:06:05.444Z,948.3
2023-04-07T13:07:07.198Z,948.3
2023-04-07T13:08:09.146Z,948.3
2023-04-07T13:09:10.987Z,948.3
2023-04-07T13:10:12.870Z,948.3
2023-04-07T13:11:14.838Z,948.3
2023-04-07T13:12:16.542Z,948.3
2023-04-07T13:13:18.402Z,948.3
2023-04-07T13:14:20.256Z,948.3
2023-04-07T13:15:21.992Z,948.3
2023-04-07T13:16:24.092Z,948.3
2023-04-07T13:17:26.219Z,948.3
2023-04-07T13:18:28.163Z,948.3
2023-04-07T13:19:30.003Z,948.3
2023-04-07T13:20:32.167Z,948.3
2023-04-07T13:21:48.302Z,948.3
2023-04-07T13:23:10.176Z,948.3
2023-04-07T13:24:12.229Z,948.3
2023-04-07T13:25:14.121Z,948.3
2023-04-07T13:26:16.043Z,948.3
2023-04-07T13:27:17.800Z,948.3